Time;durP1;ratioP1;P1;durP2;ratioP2;P2;SDS_P1;SDS_P2;PMS_P1;PMS_P2;Temp;Humidity;BMP_temperature;BMP_pressure;BME280_temperature;BME280_humidity;BME280_pressure;Samples;Min_cycle;Max_cycle;Signal;HPM_P1;HPM_P2
2024/01/12 00:01:09;;;;;;;35.07;21.60;;;;;;;18.65;43.17;101686.41;4952520;28;20206;-75
2024/01/12 00:03:36;;;;;;;34.83;21.73;;;;;;;18.66;43.43;101687.25;4946136;28;20206;-75
2024/01/12 00:06:01;;;;;;;31.13;21.80;;;;;;;18.52;43.50;101690.34;4936196;29;20612;-74
2024/01/12 00:08:28;;;;;;;33.30;21.37;;;;;;;18.43;43.73;101689.59;4938329;28;20498;-75
2024/01/12 00:10:54;;;;;;;37.77;21.33;;;;;;;18.34;42.29;101683.09;4921621;29;20652;-77
2024/01/12 00:13:19;;;;;;;35.60;22.33;;;;;;;18.16;42.71;101692.91;4951974;29;20457;-75
2024/01/12 00:15:45;;;;;;;33.90;21.87;;;;;;;18.08;42.93;101693.81;4948814;28;20233;-75
2024/01/12 00:18:11;;;;;;;32.40;20.67;;;;;;;18.02;43.20;101686.59;4935904;28;20205;-75
2024/01/12 00:20:42;;;;;;;31.87;20.27;;;;;;;18.01;43.46;101696.34;4952734;28;20213;-75
2024/01/12 00:23:09;;;;;;;30.93;19.33;;;;;;;18.02;43.88;101688.63;4940160;28;20461;-75
2024/01/12 00:25:34;;;;;;;38.73;21.47;;;;;;;18.03;43.97;101685.44;4928315;29;20497;-74
2024/01/12 00:28:00;;;;;;;33.67;19.37;;;;;;;18.04;43.92;101687.09;4949467;28;21005;-76
2024/01/12 00:30:25;;;;;;;29.43;19.83;;;;;;;18.03;44.73;101687.44;4948183;28;20217;-75
2024/01/12 00:32:51;;;;;;;28.83;20.17;;;;;;;18.07;44.07;101689.25;4946223;28;20211;-76
2024/01/12 00:35:16;;;;;;;28.70;19.70;;;;;;;18.07;44.70;101683.53;4956314;28;20205;-75
2024/01/12 00:37:42;;;;;;;28.73;19.40;;;;;;;18.06;44.52;101690.44;4956547;28;20205;-75
2024/01/12 00:40:08;;;;;;;29.23;18.90;;;;;;;18.00;45.05;101699.56;4932112;28;20211;-74
2024/01/12 00:42:34;;;;;;;28.03;16.70;;;;;;;18.07;44.70;101694.97;4955508;28;20209;-75
2024/01/12 00:44:59;;;;;;;27.70;18.80;;;;;;;18.01;44.59;101698.41;4957863;28;20451;-75
2024/01/12 00:47:25;;;;;;;27.50;18.40;;;;;;;18.01;45.07;101702.06;4955835;28;20209;-75
2024/01/12 00:49:50;;;;;;;28.33;18.23;;;;;;;18.00;44.97;101685.25;4934011;28;20230;-75
2024/01/12 00:52:16;;;;;;;28.47;18.00;;;;;;;17.96;45.65;101695.72;4932471;28;20222;-75
2024/01/12 00:54:41;;;;;;;26.13;17.47;;;;;;;18.01;45.62;101695.53;4936230;28;20203;-74
2024/01/12 00:57:07;;;;;;;30.07;19.17;;;;;;;17.95;45.59;101702.59;4950360;28;20574;-75
2024/01/12 00:59:32;;;;;;;25.00;17.70;;;;;;;17.98;45.51;101704.78;4951844;28;20613;-75
2024/01/12 01:01:58;;;;;;;26.13;17.60;;;;;;;17.97;45.45;101709.66;4916786;29;20203;-74
2024/01/12 01:04:27;;;;;;;26.30;16.00;;;;;;;18.01;45.47;101704.94;4951824;28;20210;-74
2024/01/12 01:06:53;;;;;;;29.63;19.10;;;;;;;17.93;45.67;101702.13;4935132;29;20226;-74
2024/01/12 01:09:18;;;;;;;29.23;17.20;;;;;;;17.96;45.37;101702.25;4927962;28;20581;-74
2024/01/12 01:11:44;;;;;;;27.83;17.30;;;;;;;17.95;45.52;101706.31;4922872;29;20681;-74
2024/01/12 01:14:09;;;;;;;27.67;17.60;;;;;;;17.97;45.36;101698.22;4939099;28;20211;-74
2024/01/12 01:16:35;;;;;;;30.00;17.83;;;;;;;18.01;45.60;101704.94;4932516;29;20214;-74
2024/01/12 01:19:00;;;;;;;25.30;16.87;;;;;;;17.94;45.63;101701.78;4904769;29;20669;-75
2024/01/12 01:21:26;;;;;;;24.80;16.53;;;;;;;18.01;45.50;101704.09;4967227;28;20207;-75
2024/01/12 01:23:51;;;;;;;24.80;16.63;;;;;;;17.93;45.85;101707.84;4931507;28;20229;-75
2024/01/12 01:26:17;;;;;;;22.50;16.10;;;;;;;17.89;45.92;101701.13;4936684;29;20286;-74
2024/01/12 01:28:42;;;;;;;25.33;17.80;;;;;;;17.90;46.17;101702.81;4916319;29;20688;-76
2024/01/12 01:31:08;;;;;;;23.90;15.30;;;;;;;17.82;46.83;101709.41;4932661;29;20314;-74
2024/01/12 01:33:33;;;;;;;24.90;16.40;;;;;;;17.81;46.75;101711.41;4928809;29;20211;-74
2024/01/12 01:35:59;;;;;;;24.70;16.20;;;;;;;17.86;46.26;101710.41;4950827;28;20214;-75
2024/01/12 01:38:24;;;;;;;23.60;16.03;;;;;;;17.86;46.54;101713.25;4932850;29;20247;-74
2024/01/12 01:40:49;;;;;;;27.60;16.63;;;;;;;17.81;46.53;101717.13;4935478;29;20199;-75
2024/01/12 01:43:15;;;;;;;22.07;14.83;;;;;;;17.81;46.26;101713.44;4945555;28;20273;-75
2024/01/12 01:45:41;;;;;;;21.53;16.03;;;;;;;17.77;47.07;101713.28;4902365;29;20207;-74
2024/01/12 01:48:07;;;;;;;21.27;15.40;;;;;;;17.80;46.44;101718.31;4899677;29;20227;-75
2024/01/12 01:50:32;;;;;;;23.60;13.97;;;;;;;17.77;46.94;101713.28;4925784;28;20691;-75
2024/01/12 01:52:58;;;;;;;23.30;15.17;;;;;;;17.79;46.47;101719.50;4935003;28;20449;-74
2024/01/12 01:55:23;;;;;;;22.50;16.10;;;;;;;17.77;47.03;101716.16;4928470;29;20714;-74
2024/01/12 01:57:49;;;;;;;23.20;15.20;;;;;;;17.74;46.67;101716.81;4917174;29;20215;-74
2024/01/12 02:00:36;;;;;;;23.43;16.00;;;;;;;17.76;46.49;101719.34;4936579;29;20214;-74
2024/01/12 02:03:03;;;;;;;24.97;16.37;;;;;;;17.74;46.35;101715.97;4948755;28;20227;-69
2024/01/12 02:05:29;;;;;;;19.60;14.20;;;;;;;17.75;46.50;101712.78;4948098;29;21021;-70
2024/01/12 02:07:54;;;;;;;24.37;15.20;;;;;;;17.74;47.01;101708.25;4919741;29;20215;-70
2024/01/12 02:10:20;;;;;;;20.40;13.83;;;;;;;17.73;46.86;101712.28;4919860;29;20510;-71
2024/01/12 02:12:45;;;;;;;21.30;14.87;;;;;;;17.71;47.03;101714.63;4951362;29;20203;-70
2024/01/12 02:15:11;;;;;;;21.97;14.10;;;;;;;17.71;47.08;101710.94;4931528;29;20219;-70
2024/01/12 02:17:36;;;;;;;22.63;14.53;;;;;;;17.70;47.65;101710.09;4934221;29;20207;-70
2024/01/12 02:20:02;;;;;;;23.00;14.00;;;;;;;17.70;47.01;101715.81;4934162;29;20234;-70
2024/01/12 02:22:28;;;;;;;22.33;15.10;;;;;;;17.68;47.74;101718.19;4933186;29;20203;-70
2024/01/12 02:24:53;;;;;;;21.17;14.30;;;;;;;17.69;47.01;101714.16;4914090;29;20570;-73
2024/01/12 02:27:19;;;;;;;20.73;13.97;;;;;;;17.74;46.63;101713.97;4900445;29;20204;-70
2024/01/12 02:29:45;;;;;;;20.83;13.53;;;;;;;17.72;46.92;101719.19;4916876;29;20314;-71
2024/01/12 02:32:11;;;;;;;20.33;13.73;;;;;;;17.73;46.86;101717.16;4937782;28;20274;-70
2024/01/12 02:34:36;;;;;;;19.87;13.60;;;;;;;17.73;46.92;101723.72;4933194;29;20473;-70
2024/01/12 02:37:01;;;;;;;20.03;14.27;;;;;;;17.72;47.45;101719.19;4935333;29;20207;-69
2024/01/12 02:39:27;;;;;;;23.63;13.97;;;;;;;17.74;46.80;101715.97;4933718;29;20266;-69
2024/01/12 02:41:57;;;;;;;20.77;14.40;;;;;;;17.69;47.49;101722.72;4920158;29;20206;-69
2024/01/12 02:44:22;;;;;;;21.67;13.50;;;;;;;17.68;47.24;101725.91;4934545;29;20206;-69
2024/01/12 02:46:48;;;;;;;23.43;14.80;;;;;;;17.66;47.38;101717.66;4932425;29;20811;-69
2024/01/12 02:49:13;;;;;;;18.40;13.17;;;;;;;17.72;46.91;101710.63;4900485;29;20223;-69
2024/01/12 02:51:39;;;;;;;18.37;13.80;;;;;;;17.67;47.27;101721.38;4927111;29;20229;-70
2024/01/12 02:54:04;;;;;;;17.87;12.87;;;;;;;17.68;47.47;101723.06;4936382;29;20214;-71
2024/01/12 02:56:30;;;;;;;19.13;13.67;;;;;;;17.70;47.24;101717.84;4931370;29;20303;-70
2024/01/12 02:58:55;;;;;;;20.73;13.50;;;;;;;17.64;47.36;101725.75;4918919;29;20218;-69
2024/01/12 03:01:21;;;;;;;21.10;13.60;;;;;;;17.65;47.20;101732.31;4935897;29;20214;-70
2024/01/12 03:03:46;;;;;;;19.97;13.50;;;;;;;17.65;47.56;101727.41;4934503;29;20210;-69
2024/01/12 03:06:11;;;;;;;20.23;13.23;;;;;;;17.63;46.91;101726.94;4934083;29;20218;-69
2024/01/12 03:08:37;;;;;;;17.87;12.53;;;;;;;17.64;47.44;101717.19;4951105;28;20214;-71
2024/01/12 03:11:03;;;;;;;18.13;12.90;;;;;;;17.59;47.72;101720.22;4949936;28;20203;-69
2024/01/12 03:13:29;;;;;;;20.63;13.50;;;;;;;17.63;47.55;101715.53;4932935;29;20758;-71
2024/01/12 03:15:54;;;;;;;17.67;12.70;;;;;;;17.65;47.84;101710.28;4917579;28;20455;-69
2024/01/12 03:18:19;;;;;;;19.67;13.10;;;;;;;17.60;47.52;101715.38;4933611;29;20209;-70
2024/01/12 03:20:45;;;;;;;19.80;13.53;;;;;;;17.62;47.49;101713.84;4950707;28;20207;-69
2024/01/12 03:23:10;;;;;;;18.00;12.30;;;;;;;17.61;47.92;101703.56;4948709;28;20210;-69
2024/01/12 03:25:36;;;;;;;21.43;12.90;;;;;;;17.63;47.61;101691.81;4909456;29;20563;-69
2024/01/12 03:28:01;;;;;;;19.30;12.40;;;;;;;17.57;47.98;101690.34;4950037;29;20206;-69
2024/01/12 03:30:27;;;;;;;16.93;11.20;;;;;;;17.60;47.85;101686.81;4939336;29;20207;-69
2024/01/12 03:32:52;;;;;;;17.67;12.30;;;;;;;17.57;47.88;101691.19;4930791;29;20202;-70
2024/01/12 03:35:17;;;;;;;20.40;13.57;;;;;;;17.57;47.74;101691.19;4936502;28;20298;-71
2024/01/12 03:37:43;;;;;;;21.43;13.07;;;;;;;17.58;47.50;101683.44;4921098;28;20805;-70
2024/01/12 03:40:09;;;;;;;18.03;12.20;;;;;;;17.55;48.24;101693.53;4917482;29;20214;-70
2024/01/12 03:42:34;;;;;;;16.93;12.00;;;;;;;17.53;47.81;101693.03;4917132;28;20203;-71
2024/01/12 03:45:00;;;;;;;16.27;11.50;;;;;;;17.55;47.60;101684.97;4936348;29;20226;-69
2024/01/12 03:47:25;;;;;;;18.73;13.17;;;;;;;17.59;47.70;101691.66;4917625;29;20203;-69
2024/01/12 03:49:51;;;;;;;19.20;11.93;;;;;;;17.57;47.90;101688.31;4947530;28;20223;-70
2024/01/12 03:52:16;;;;;;;19.87;12.93;;;;;;;17.55;47.54;101678.44;4916814;28;20270;-70
2024/01/12 03:54:42;;;;;;;16.60;11.43;;;;;;;17.58;48.17;101678.56;4933995;29;20202;-69
2024/01/12 03:57:07;;;;;;;16.83;11.63;;;;;;;17.55;47.46;101681.28;4947179;28;20226;-69
2024/01/12 03:59:32;;;;;;;17.23;12.03;;;;;;;17.56;47.51;101680.09;4918421;29;20210;-69
2024/01/12 04:01:58;;;;;;;14.77;11.00;;;;;;;17.56;47.57;101680.09;4950351;28;20793;-69
2024/01/12 04:04:23;;;;;;;18.60;12.43;;;;;;;17.53;48.31;101686.47;4917552;29;20214;-72
2024/01/12 04:06:49;;;;;;;16.17;11.40;;;;;;;17.56;47.66;101678.06;4918034;29;20200;-70
2024/01/12 04:09:15;;;;;;;16.67;11.37;;;;;;;17.60;47.80;101686.81;4923899;29;20751;-72
2024/01/12 04:11:40;;;;;;;18.40;12.03;;;;;;;17.62;47.69;101678.72;4904664;29;20206;-70
2024/01/12 04:14:06;;;;;;;18.33;12.27;;;;;;;17.58;48.00;101680.59;4921054;29;20214;-73
2024/01/12 04:16:31;;;;;;;19.73;11.83;;;;;;;17.60;47.44;101679.06;4904319;29;20208;-70
2024/01/12 04:18:57;;;;;;;20.33;12.20;;;;;;;17.57;47.94;101681.75;4948778;28;20572;-69
2024/01/12 04:21:22;;;;;;;18.27;12.37;;;;;;;17.57;47.90;101685.47;4929299;29;20239;-74
2024/01/12 04:23:48;;;;;;;16.10;11.50;;;;;;;17.56;47.62;101680.91;4934850;29;20207;-69
2024/01/12 04:26:13;;;;;;;14.73;10.73;;;;;;;17.58;47.62;101680.59;4917228;29;20211;-69
2024/01/12 04:28:39;;;;;;;15.07;11.00;;;;;;;17.57;48.14;101693.19;4907572;28;20374;-70
2024/01/12 04:31:05;;;;;;;14.77;10.70;;;;;;;17.54;47.92;101685.28;4915918;29;20215;-71
2024/01/12 04:33:30;;;;;;;16.73;10.90;;;;;;;17.57;47.81;101688.31;4920813;29;20446;-70
2024/01/12 04:35:57;;;;;;;16.80;10.70;;;;;;;17.59;47.70;101693.69;4904956;28;20206;-69
2024/01/12 04:38:23;;;;;;;15.73;10.97;;;;;;;17.56;47.74;101703.75;4921421;29;20225;-73
2024/01/12 04:40:48;;;;;;;15.53;11.97;;;;;;;17.56;47.64;101700.91;4921999;29;20791;-70
2024/01/12 04:43:13;;;;;;;14.03;9.77;;;;;;;17.52;47.92;101702.78;4913746;28;20466;-70
2024/01/12 04:45:39;;;;;;;15.77;11.17;;;;;;;17.60;47.51;101701.91;4936409;28;20199;-70
2024/01/12 04:48:05;;;;;;;15.63;10.67;;;;;;;17.52;47.71;101699.94;4936365;29;20218;-70
2024/01/12 04:50:31;;;;;;;17.20;11.23;;;;;;;17.53;48.00;101690.19;4935225;29;20242;-70
2024/01/12 04:52:56;;;;;;;15.83;10.77;;;;;;;17.54;48.05;101699.56;4920120;29;20459;-69
2024/01/12 04:55:22;;;;;;;15.50;10.13;;;;;;;17.51;47.67;101695.38;4946814;28;20672;-70
2024/01/12 04:57:48;;;;;;;15.73;10.50;;;;;;;17.51;48.42;101697.41;4957610;28;20190;-69
2024/01/12 05:00:13;;;;;;;15.07;10.50;;;;;;;17.54;48.13;101697.56;4939665;28;20214;-69
2024/01/12 05:02:40;;;;;;;15.97;9.87;;;;;;;17.52;47.91;101693.38;4939461;28;20285;-70
2024/01/12 05:05:07;;;;;;;15.20;11.03;;;;;;;17.54;48.38;101708.13;4939846;28;20277;-70
2024/01/12 05:07:32;;;;;;;16.50;11.17;;;;;;;17.53;48.31;101704.47;4950268;28;20580;-70
2024/01/12 05:09:58;;;;;;;14.07;10.13;;;;;;;17.53;47.66;101695.91;4919897;29;20526;-70
2024/01/12 05:12:23;;;;;;;14.30;9.90;;;;;;;17.55;47.89;101702.09;4945399;28;20211;-70
2024/01/12 05:14:49;;;;;;;17.23;11.20;;;;;;;17.54;48.30;101693.84;4911841;28;20198;-70
2024/01/12 05:17:14;;;;;;;15.17;10.70;;;;;;;17.52;47.97;101707.66;4919755;29;20214;-69
2024/01/12 05:19:40;;;;;;;15.20;10.63;;;;;;;17.53;47.91;101710.16;4952996;28;20203;-71
2024/01/12 05:22:05;;;;;;;14.57;9.93;;;;;;;17.57;47.75;101707.47;4920715;28;20238;-69
2024/01/12 05:24:31;;;;;;;18.73;11.13;;;;;;;17.57;47.63;101708.31;4936410;29;20218;-72
2024/01/12 05:26:56;;;;;;;13.93;10.13;;;;;;;17.56;48.11;101715.19;4936683;28;20213;-70
2024/01/12 05:29:21;;;;;;;14.60;10.60;;;;;;;17.51;48.39;101709.66;4973660;28;20225;-70
2024/01/12 05:31:47;;;;;;;14.23;10.50;;;;;;;17.54;47.84;101711.00;4934388;29;20947;-69
2024/01/12 05:34:12;;;;;;;14.83;10.50;;;;;;;17.53;48.47;101710.16;4916999;29;20590;-70
2024/01/12 05:36:38;;;;;;;16.37;10.27;;;;;;;17.54;47.87;101716.69;4916325;29;20215;-69
2024/01/12 05:39:04;;;;;;;15.60;10.23;;;;;;;17.56;48.72;101715.19;4923693;28;20557;-69
2024/01/12 05:41:30;;;;;;;15.80;10.07;;;;;;;17.55;47.97;101715.53;4936750;28;20223;-72
2024/01/12 05:43:56;;;;;;;14.00;10.20;;;;;;;17.58;48.26;101717.69;4955289;28;20492;-69
2024/01/12 05:46:21;;;;;;;14.93;10.77;;;;;;;17.56;47.97;101718.03;4954000;28;20678;-69
2024/01/12 05:48:46;;;;;;;13.80;9.93;;;;;;;17.59;47.91;101725.09;4913931;29;20219;-70
2024/01/12 05:51:15;;;;;;;12.97;8.93;;;;;;;17.59;47.88;101731.66;4898274;29;20248;-69
2024/01/12 05:53:41;;;;;;;12.90;9.47;;;;;;;17.58;47.40;101727.13;4912797;29;20724;-70
2024/01/12 05:56:07;;;;;;;14.53;9.90;;;;;;;17.52;48.16;101716.22;4916358;29;20462;-70
2024/01/12 05:58:32;;;;;;;15.87;9.63;;;;;;;17.56;47.87;101726.59;4903091;29;20279;-69
2024/01/12 06:00:58;;;;;;;14.40;9.63;;;;;;;17.58;47.75;101724.25;4922909;29;20208;-69
2024/01/12 06:03:24;;;;;;;14.40;9.57;;;;;;;17.52;48.09;101719.06;4897504;29;20200;-71
2024/01/12 06:05:51;;;;;;;12.70;9.77;;;;;;;17.56;48.01;101720.88;4881955;29;20279;-71
2024/01/12 06:08:17;;;;;;;13.20;9.40;;;;;;;17.63;47.31;101715.53;4897367;29;20467;-69
2024/01/12 06:10:42;;;;;;;13.87;9.57;;;;;;;17.52;48.52;101699.94;4934122;29;20448;-69
2024/01/12 06:13:08;;;;;;;12.97;9.40;;;;;;;17.53;47.99;101681.63;4910877;29;20223;-69
2024/01/12 06:15:34;;;;;;;14.00;8.93;;;;;;;17.54;47.71;101691.00;4892139;29;20212;-71
2024/01/12 06:18:00;;;;;;;13.77;10.37;;;;;;;17.52;48.31;101696.22;4914495;29;20205;-70
2024/01/12 06:20:26;;;;;;;13.10;8.90;;;;;;;17.53;48.22;101695.91;4900170;29;20235;-71
2024/01/12 06:22:51;;;;;;;14.20;9.53;;;;;;;17.57;47.98;101705.47;4901622;29;20597;-70
2024/01/12 06:25:17;;;;;;;14.17;9.77;;;;;;;17.53;48.36;101704.47;4915643;29;20468;-69
2024/01/12 06:27:42;;;;;;;13.87;9.73;;;;;;;17.54;48.21;101709.00;4897672;29;20208;-69
2024/01/12 06:30:08;;;;;;;14.47;9.83;;;;;;;17.57;47.59;101704.63;4925907;29;20211;-72
2024/01/12 06:32:34;;;;;;;12.37;8.90;;;;;;;17.55;48.10;101702.09;4895632;29;20596;-71
2024/01/12 06:34:59;;;;;;;13.90;9.43;;;;;;;17.58;48.51;101703.44;4888593;29;20696;-69
2024/01/12 06:37:25;;;;;;;11.53;8.73;;;;;;;17.54;48.06;101711.84;4897093;29;20285;-69
2024/01/12 06:39:50;;;;;;;15.07;10.17;;;;;;;17.52;48.29;101716.22;4912681;29;20213;-69
2024/01/12 06:42:16;;;;;;;14.00;9.80;;;;;;;17.55;48.50;101719.22;4897039;29;20215;-71
2024/01/12 06:44:41;;;;;;;13.93;10.00;;;;;;;17.57;47.84;101711.16;4926810;29;20215;-70
2024/01/12 06:47:07;;;;;;;14.63;8.90;;;;;;;17.60;48.08;101709.66;4898487;29;20224;-70
2024/01/12 06:49:33;;;;;;;13.07;9.30;;;;;;;17.52;48.27;101707.66;4917824;29;20291;-69
2024/01/12 06:51:59;;;;;;;15.47;10.57;;;;;;;17.54;47.88;101711.84;4932742;28;20470;-70
2024/01/12 06:54:24;;;;;;;14.20;9.20;;;;;;;17.59;48.02;101713.66;4930816;29;20454;-69
2024/01/12 06:56:52;;;;;;;11.60;8.30;;;;;;;17.56;47.81;101717.22;4918662;29;20209;-70
2024/01/12 06:59:18;;;;;;;13.20;9.40;;;;;;;17.55;48.12;101722.06;4935273;28;20210;-70
2024/01/12 07:01:43;;;;;;;13.50;8.90;;;;;;;17.55;48.69;101724.13;4935084;28;20442;-70
2024/01/12 07:04:09;;;;;;;11.97;8.70;;;;;;;17.54;47.92;101722.41;4936270;28;20207;-69
2024/01/12 07:06:34;;;;;;;14.03;8.77;;;;;;;17.55;48.06;101724.94;4933721;28;20285;-69
2024/01/12 07:09:00;;;;;;;11.63;8.67;;;;;;;17.54;47.80;101728.97;4914539;29;20230;-71
2024/01/12 07:11:25;;;;;;;13.43;9.00;;;;;;;17.55;48.05;101742.06;4915117;29;20203;-70
2024/01/12 07:13:51;;;;;;;12.43;9.50;;;;;;;17.59;47.80;101734.50;4933612;29;20222;-70
2024/01/12 07:16:16;;;;;;;11.30;8.27;;;;;;;17.55;48.80;101724.13;4914186;29;20902;-69
2024/01/12 07:18:45;;;;;;;12.87;8.77;;;;;;;17.56;48.44;101731.50;4925901;29;20209;-69
2024/01/12 07:21:10;;;;;;;12.60;9.30;;;;;;;17.54;48.24;101728.13;4934475;29;20293;-69
2024/01/12 07:23:36;;;;;;;11.57;8.30;;;;;;;17.54;47.95;101740.41;4929574;29;20471;-72
2024/01/12 07:26:01;;;;;;;13.70;9.13;;;;;;;17.56;47.95;101732.31;4931098;29;20259;-71
2024/01/12 07:28:26;;;;;;;12.60;9.07;;;;;;;17.54;48.23;101726.13;4915674;29;20215;-70
2024/01/12 07:30:53;;;;;;;11.37;8.20;;;;;;;17.55;48.47;101724.94;4933691;29;20207;-70
2024/01/12 07:33:19;;;;;;;11.47;8.83;;;;;;;17.56;48.95;101732.31;4932130;29;20710;-68
2024/01/12 07:35:45;;;;;;;14.67;9.80;;;;;;;17.65;47.64;101735.16;4933525;29;20882;-70
2024/01/12 07:38:10;;;;;;;12.57;9.20;;;;;;;17.58;48.19;101729.13;4917662;29;20454;-69
2024/01/12 07:40:37;;;;;;;13.27;8.80;;;;;;;17.57;48.23;101727.47;4926442;28;20204;-69
2024/01/12 07:43:03;;;;;;;11.27;7.77;;;;;;;17.58;47.81;101735.69;4917277;29;20310;-69
2024/01/12 07:45:28;;;;;;;14.60;8.40;;;;;;;17.53;47.68;101738.72;4950480;28;20451;-75
2024/01/12 07:47:54;;;;;;;12.83;8.53;;;;;;;17.62;47.66;101752.97;4933245;29;20211;-75
2024/01/12 07:50:19;;;;;;;11.37;8.60;;;;;;;17.65;47.48;101738.03;4932746;29;20246;-74
2024/01/12 07:52:45;;;;;;;13.30;9.37;;;;;;;17.59;48.44;101740.22;4948509;28;20210;-75
2024/01/12 07:55:11;;;;;;;11.97;8.80;;;;;;;17.58;47.91;101752.81;4932785;29;20366;-75
2024/01/12 07:57:36;;;;;;;13.00;9.13;;;;;;;17.58;48.40;101757.69;4938050;29;20509;-74
2024/01/12 08:00:03;;;;;;;33.00;18.23;;;;;;;17.07;45.03;101754.84;4950272;29;20203;-76
2024/01/12 08:02:28;;;;;;;40.27;23.97;;;;;;;16.00;35.44;101760.47;4947823;28;20304;-77
2024/01/12 08:04:53;;;;;;;42.57;23.93;;;;;;;15.62;37.50;101768.66;4941563;28;20458;-78
2024/01/12 08:07:19;;;;;;;40.10;22.40;;;;;;;16.56;37.70;101761.34;4945942;28;20425;-77
2024/01/12 08:09:44;;;;;;;34.40;21.60;;;;;;;17.39;34.00;101766.63;4958863;28;20218;-77
2024/01/12 08:12:10;;;;;;;43.27;21.23;;;;;;;17.97;33.98;101769.66;4941338;28;20217;-76
2024/01/12 08:14:35;;;;;;;40.07;21.40;;;;;;;18.50;34.62;101767.09;4929799;29;20211;-77
2024/01/12 08:17:02;;;;;;;34.13;19.20;;;;;;;18.87;34.93;101774.75;4910479;29;20207;-77
2024/01/12 08:19:28;;;;;;;31.87;19.03;;;;;;;19.14;35.11;101779.94;4961388;28;20203;-77
2024/01/12 08:21:53;;;;;;;35.80;20.70;;;;;;;19.07;35.05;101785.38;4961189;28;20486;-76
2024/01/12 08:24:19;;;;;;;38.13;19.33;;;;;;;19.39;35.60;101781.78;4921906;29;20207;-77
2024/01/12 08:26:45;;;;;;;31.50;18.30;;;;;;;19.34;36.27;101779.13;4940306;29;20308;-76
2024/01/12 08:29:11;;;;;;;29.53;18.90;;;;;;;19.38;36.54;101773.53;4923783;28;20218;-77
2024/01/12 08:31:36;;;;;;;26.37;17.13;;;;;;;19.09;36.73;101771.56;4932848;29;20454;-75
2024/01/12 08:34:01;;;;;;;26.93;18.27;;;;;;;18.94;36.04;101783.63;4935828;29;20202;-76
2024/01/12 08:36:27;;;;;;;33.53;18.47;;;;;;;19.13;38.95;101780.28;4925819;29;20210;-76
2024/01/12 08:38:52;;;;;;;25.77;17.50;;;;;;;18.81;38.21;101779.00;4936208;29;20195;-76
2024/01/12 08:41:18;;;;;;;29.37;16.77;;;;;;;18.59;39.01;101782.19;4951554;28;20235;-76
2024/01/12 08:43:43;;;;;;;28.10;17.07;;;;;;;18.60;39.81;101780.16;4917801;29;20207;-76
2024/01/12 08:46:09;;;;;;;30.07;17.20;;;;;;;18.68;40.66;101782.13;4917952;28;20215;-76
2024/01/12 08:48:35;;;;;;;23.73;16.30;;;;;;;18.75;40.84;101785.25;4940536;28;20223;-76
2024/01/12 08:51:00;;;;;;;24.60;16.97;;;;;;;18.70;41.06;101782.59;4942690;28;20262;-76
2024/01/12 08:53:27;;;;;;;23.57;15.70;;;;;;;18.40;41.41;101784.63;4944698;29;20462;-76
2024/01/12 08:55:53;;;;;;;23.40;14.47;;;;;;;18.40;41.80;101789.50;4944582;28;20203;-76
2024/01/12 08:58:19;;;;;;;22.70;14.50;;;;;;;18.37;43.70;101798.78;4889920;29;20463;-73
2024/01/12 09:00:44;;;;;;;21.20;14.60;;;;;;;18.33;44.15;101809.22;4911461;29;20293;-75
2024/01/12 09:03:10;;;;;;;22.77;14.87;;;;;;;18.27;44.23;101811.41;4918027;29;20986;-74
2024/01/12 09:05:35;;;;;;;25.73;15.20;;;;;;;18.24;44.26;101811.25;4916580;29;20215;-77
2024/01/12 09:08:01;;;;;;;24.53;13.50;;;;;;;18.08;45.34;101811.00;4933062;29;20267;-78
2024/01/12 09:10:27;;;;;;;21.37;14.10;;;;;;;18.04;44.53;101810.00;4953236;28;20215;-77
2024/01/12 09:12:53;;;;;;;22.40;14.87;;;;;;;18.00;44.69;101817.56;4922580;29;20890;-77
2024/01/12 09:15:19;;;;;;;22.73;14.97;;;;;;;17.91;44.61;101813.88;4920309;29;20545;-76
2024/01/12 09:17:48;;;;;;;25.67;15.60;;;;;;;17.88;43.69;101820.28;4934316;29;20211;-75
2024/01/12 09:20:15;;;;;;;31.80;18.83;;;;;;;17.73;42.57;101819.97;4906391;29;20222;-75
2024/01/12 09:22:40;;;;;;;30.70;19.67;;;;;;;17.60;40.18;101823.88;4917920;29;20579;-76
2024/01/12 09:25:06;;;;;;;31.57;21.90;;;;;;;17.51;39.00;101821.00;4902517;29;20949;-75
2024/01/12 09:27:32;;;;;;;34.70;22.70;;;;;;;17.48;38.15;101818.00;4937599;29;20259;-73
2024/01/12 09:29:57;;;;;;;33.40;21.90;;;;;;;17.48;38.29;101816.00;4942070;29;20564;-73
2024/01/12 09:32:23;;;;;;;28.87;20.07;;;;;;;17.55;38.57;101819.16;4938581;28;20680;-77
2024/01/12 09:34:48;;;;;;;32.23;19.97;;;;;;;17.55;38.99;101816.31;4914976;29;20330;-77
2024/01/12 09:37:14;;;;;;;34.67;20.77;;;;;;;17.64;39.06;101813.44;4913351;29;20207;-80
2024/01/12 09:39:39;;;;;;;32.40;20.57;;;;;;;17.63;40.18;101820.31;4920284;29;20204;-75
2024/01/12 09:42:06;;;;;;;35.67;20.20;;;;;;;17.59;39.98;101817.31;4934741;28;20211;-75
2024/01/12 09:44:37;;;;;;;34.60;21.10;;;;;;;17.58;41.07;101824.22;4947734;29;20321;-74
2024/01/12 09:47:03;;;;;;;33.40;16.80;;;;;;;17.66;44.02;101819.66;4915110;28;20557;-74
2024/01/12 09:49:29;;;;;;;33.63;18.60;;;;;;;17.66;44.17;101809.06;4919541;28;20482;-73
2024/01/12 09:51:56;;;;;;;37.73;20.03;;;;;;;17.68;45.49;101814.44;4908439;29;20303;-72
2024/01/12 09:54:21;;;;;;;36.17;17.67;;;;;;;17.74;44.81;101813.09;4945944;28;21027;-71
2024/01/12 09:56:47;;;;;;;37.93;18.20;;;;;;;17.78;45.06;101814.94;4915512;29;20512;-71
2024/01/12 09:59:12;;;;;;;31.47;17.03;;;;;;;17.70;45.46;101818.63;4919009;29;20230;-72
2024/01/12 10:01:41;;;;;;;38.97;19.13;;;;;;;17.72;45.43;101813.44;4933521;29;20226;-72
2024/01/12 10:04:06;;;;;;;30.20;17.87;;;;;;;17.70;45.92;101818.63;4927766;29;20211;-72
2024/01/12 10:06:32;;;;;;;32.30;16.97;;;;;;;17.77;45.99;101818.13;4899021;29;20503;-73
2024/01/12 10:08:58;;;;;;;32.30;15.37;;;;;;;17.72;46.04;101804.88;4919337;29;20241;-72
2024/01/12 10:11:24;;;;;;;33.00;17.00;;;;;;;17.74;45.67;101811.06;4923512;29;20691;-72
2024/01/12 10:13:49;;;;;;;30.30;15.60;;;;;;;17.78;45.34;101803.50;4932575;29;20259;-72
2024/01/12 10:16:16;;;;;;;25.90;15.93;;;;;;;17.77;45.78;101803.84;4917106;29;20519;-77
2024/01/12 10:18:42;;;;;;;29.17;16.73;;;;;;;17.76;45.79;101803.00;4922319;29;20610;-75
2024/01/12 10:21:08;;;;;;;23.30;13.90;;;;;;;17.76;45.93;101800.13;4933982;29;20541;-77
2024/01/12 10:23:34;;;;;;;31.80;16.20;;;;;;;17.76;46.14;101805.03;4948406;28;20470;-77
2024/01/12 10:26:00;;;;;;;28.90;15.57;;;;;;;17.76;45.93;101800.13;4941041;28;20457;-74
2024/01/12 10:28:29;;;;;;;23.10;13.47;;;;;;;17.78;46.41;101796.94;4920440;28;20676;-75
2024/01/12 10:30:55;;;;;;;24.57;15.80;;;;;;;17.81;45.83;101797.09;4922607;29;20772;-74
2024/01/12 10:33:21;;;;;;;30.70;16.17;;;;;;;17.82;46.13;101795.94;4921597;29;20497;-75
2024/01/12 10:35:48;;;;;;;25.87;14.57;;;;;;;17.82;46.04;101806.53;4933656;29;20454;-76
2024/01/12 10:38:14;;;;;;;31.73;15.20;;;;;;;17.81;46.04;101807.72;4932345;29;20198;-75
2024/01/12 10:40:40;;;;;;;25.97;14.33;;;;;;;17.84;46.38;101799.28;4916086;29;20513;-75
2024/01/12 10:43:06;;;;;;;23.17;14.00;;;;;;;17.83;46.03;101800.47;4933453;29;20214;-75
2024/01/12 10:45:31;;;;;;;24.60;15.50;;;;;;;17.79;46.62;101804.34;4930198;28;20459;-75
2024/01/12 10:48:02;;;;;;;22.00;14.37;;;;;;;17.83;46.57;101803.34;4917673;28;20210;-76
2024/01/12 10:50:28;;;;;;;22.13;13.17;;;;;;;17.82;46.31;101798.81;4933988;29;20239;-75
2024/01/12 10:52:58;;;;;;;23.00;12.77;;;;;;;17.81;46.91;101799.97;4933722;29;20457;-76
2024/01/12 10:55:24;;;;;;;21.50;13.07;;;;;;;17.83;46.63;101793.91;4933536;29;20207;-75
2024/01/12 10:57:49;;;;;;;25.53;14.17;;;;;;;17.83;46.43;101803.34;4935127;28;20848;-75
2024/01/12 11:00:16;;;;;;;22.27;13.07;;;;;;;17.84;46.60;101798.44;4913295;29;20211;-74
2024/01/12 11:02:42;;;;;;;21.60;12.97;;;;;;;17.83;46.49;101791.06;4949104;28;20697;-75
2024/01/12 11:05:10;;;;;;;22.60;12.93;;;;;;;17.84;46.71;101776.44;4934967;28;20482;-74